sensor_id;sensor_type;location;lat;lon;timestamp;pressure;altitude;pressure_sealevel;temperature;humidity
21828;BME280;11076;47.942;11.804;2023-06-26T00:02:58;94436.13;;;17.74;56.92
21828;BME280;11076;47.942;11.804;2023-06-26T00:08:00;94426.91;;;17.65;57.26
21828;BME280;11076;47.942;11.804;2023-06-26T00:13:02;94429.78;;;17.48;57.87
21828;BME280;11076;47.942;11.804;2023-06-26T00:18:05;94432.78;;;17.52;57.79
21828;BME280;11076;47.942;11.804;2023-06-26T00:23:08;94430.56;;;17.43;58.18
21828;BME280;11076;47.942;11.804;2023-06-26T00:28:10;94428.16;;;17.47;58.01
21828;BME280;11076;47.942;11.804;2023-06-26T00:33:12;94427.63;;;17.50;58.41
21828;BME280;11076;47.942;11.804;2023-06-26T00:38:15;94435.63;;;17.35;58.79
21828;BME280;11076;47.942;11.804;2023-06-26T00:43:19;94437.63;;;17.49;59.54
21828;BME280;11076;47.942;11.804;2023-06-26T00:48:23;94433.56;;;17.52;59.46
21828;BME280;11076;47.942;11.804;2023-06-26T00:53:26;94445.97;;;17.43;59.20
21828;BME280;11076;47.942;11.804;2023-06-26T00:58:28;94442.09;;;17.71;58.09
21828;BME280;11076;47.942;11.804;2023-06-26T01:03:32;94439.53;;;17.54;57.70
21828;BME280;11076;47.942;11.804;2023-06-26T01:08:34;94431.09;;;17.88;56.35
21828;BME280;11076;47.942;11.804;2023-06-26T01:13:38;94431.69;;;18.00;55.58
21828;BME280;11076;47.942;11.804;2023-06-26T01:18:41;94431.53;;;18.22;54.27
21828;BME280;11076;47.942;11.804;2023-06-26T01:29:13;94418.03;;;18.48;53.40
21828;BME280;11076;47.942;11.804;2023-06-26T01:34:17;94418.03;;;18.48;53.24
21828;BME280;11076;47.942;11.804;2023-06-26T01:39:20;94416.69;;;18.45;53.26
21828;BME280;11076;47.942;11.804;2023-06-26T01:44:29;94410.50;;;18.60;52.65
21828;BME280;11076;47.942;11.804;2023-06-26T01:49:52;94415.41;;;18.84;51.95
21828;BME280;11076;47.942;11.804;2023-06-26T01:55:13;94422.09;;;18.40;52.83
21828;BME280;11076;47.942;11.804;2023-06-26T02:00:19;94412.88;;;18.36;53.54
21828;BME280;11076;47.942;11.804;2023-06-26T02:05:24;94418.25;;;18.26;53.41
21828;BME280;11076;47.942;11.804;2023-06-26T02:10:28;94424.13;;;17.97;54.20
21828;BME280;11076;47.942;11.804;2023-06-26T02:15:31;94425.34;;;17.79;55.36
21828;BME280;11076;47.942;11.804;2023-06-26T02:20:34;94421.31;;;17.82;55.42
21828;BME280;11076;47.942;11.804;2023-06-26T02:25:37;94422.06;;;17.72;55.65
21828;BME280;11076;47.942;11.804;2023-06-26T02:30:39;94422.25;;;17.55;56.38
21828;BME280;11076;47.942;11.804;2023-06-26T02:35:42;94428.41;;;17.45;56.84
21828;BME280;11076;47.942;11.804;2023-06-26T02:40:45;94428.13;;;17.42;57.31
21828;BME280;11076;47.942;11.804;2023-06-26T02:45:49;94423.16;;;17.28;57.32
21828;BME280;11076;47.942;11.804;2023-06-26T02:50:52;94424.75;;;17.24;58.21
21828;BME280;11076;47.942;11.804;2023-06-26T02:56:00;94434.44;;;17.20;58.22
21828;BME280;11076;47.942;11.804;2023-06-26T03:01:02;94441.97;;;17.13;58.73
21828;BME280;11076;47.942;11.804;2023-06-26T03:06:08;94437.06;;;17.10;58.57
21828;BME280;11076;47.942;11.804;2023-06-26T03:11:10;94430.50;;;17.01;58.90
21828;BME280;11076;47.942;11.804;2023-06-26T03:16:13;94429.91;;;16.94;59.34
21828;BME280;11076;47.942;11.804;2023-06-26T03:21:17;94425.78;;;17.18;58.47
21828;BME280;11076;47.942;11.804;2023-06-26T03:26:20;94419.56;;;17.18;58.38
21828;BME280;11076;47.942;11.804;2023-06-26T03:31:31;94418.28;;;17.25;58.01
21828;BME280;11076;47.942;11.804;2023-06-26T03:36:33;94424.16;;;17.17;58.65
21828;BME280;11076;47.942;11.804;2023-06-26T03:41:38;94429.41;;;17.34;58.17
21828;BME280;11076;47.942;11.804;2023-06-26T03:46:41;94439.97;;;17.36;58.56
21828;BME280;11076;47.942;11.804;2023-06-26T03:51:44;94434.19;;;17.64;58.02
21828;BME280;11076;47.942;11.804;2023-06-26T03:56:46;94424.13;;;18.02;57.03
21828;BME280;11076;47.942;11.804;2023-06-26T04:01:49;94412.81;;;18.11;56.98
21828;BME280;11076;47.942;11.804;2023-06-26T04:06:52;94426.13;;;18.38;56.43
21828;BME280;11076;47.942;11.804;2023-06-26T04:11:55;94424.81;;;18.45;56.16
21828;BME280;11076;47.942;11.804;2023-06-26T04:16:59;94422.94;;;18.51;56.35
21828;BME280;11076;47.942;11.804;2023-06-26T04:22:03;94428.09;;;18.58;56.56
21828;BME280;11076;47.942;11.804;2023-06-26T04:27:06;94427.88;;;18.85;56.37
21828;BME280;11076;47.942;11.804;2023-06-26T04:32:08;94436.03;;;19.36;55.58
21828;BME280;11076;47.942;11.804;2023-06-26T04:37:11;94429.25;;;19.13;56.45
21828;BME280;11076;47.942;11.804;2023-06-26T04:42:16;94429.97;;;19.85;55.75
21828;BME280;11076;47.942;11.804;2023-06-26T04:47:19;94433.34;;;20.32;54.69
21828;BME280;11076;47.942;11.804;2023-06-26T04:52:21;94431.03;;;20.55;54.98
21828;BME280;11076;47.942;11.804;2023-06-26T04:57:23;94414.31;;;22.71;51.12
21828;BME280;11076;47.942;11.804;2023-06-26T05:02:26;94411.41;;;22.24;51.13
21828;BME280;11076;47.942;11.804;2023-06-26T05:07:28;94420.94;;;21.98;52.02
21828;BME280;11076;47.942;11.804;2023-06-26T05:12:31;94424.19;;;22.24;52.14
21828;BME280;11076;47.942;11.804;2023-06-26T05:17:33;94416.31;;;24.80;49.60
21828;BME280;11076;47.942;11.804;2023-06-26T05:22:37;94399.47;;;30.65;41.26
21828;BME280;11076;47.942;11.804;2023-06-26T05:27:41;94400.63;;;33.32;35.42
21828;BME280;11076;47.942;11.804;2023-06-26T05:32:44;94408.94;;;34.83;30.85
21828;BME280;11076;47.942;11.804;2023-06-26T05:37:49;94401.13;;;36.58;28.65
21828;BME280;11076;47.942;11.804;2023-06-26T05:42:52;94404.50;;;36.37;27.57
21828;BME280;11076;47.942;11.804;2023-06-26T05:47:55;94402.19;;;37.57;27.11
21828;BME280;11076;47.942;11.804;2023-06-26T05:52:57;94408.41;;;38.45;26.71
21828;BME280;11076;47.942;11.804;2023-06-26T05:58:02;94403.03;;;39.84;25.22
21828;BME280;11076;47.942;11.804;2023-06-26T06:03:04;94414.53;;;40.67;23.89
21828;BME280;11076;47.942;11.804;2023-06-26T06:08:07;94405.72;;;41.17;23.35
21828;BME280;11076;47.942;11.804;2023-06-26T06:13:09;94406.16;;;41.12;22.79
21828;BME280;11076;47.942;11.804;2023-06-26T06:18:11;94421.16;;;40.39;22.09
21828;BME280;11076;47.942;11.804;2023-06-26T06:23:14;94409.78;;;40.64;21.74
21828;BME280;11076;47.942;11.804;2023-06-26T06:28:16;94416.78;;;39.46;22.32
21828;BME280;11076;47.942;11.804;2023-06-26T06:33:19;94415.44;;;37.08;23.77
21828;BME280;11076;47.942;11.804;2023-06-26T06:38:21;94418.72;;;32.59;28.30
21828;BME280;11076;47.942;11.804;2023-06-26T06:43:24;94424.03;;;30.08;31.33
21828;BME280;11076;47.942;11.804;2023-06-26T06:48:26;94431.34;;;29.38;32.67
21828;BME280;11076;47.942;11.804;2023-06-26T06:53:28;94423.06;;;28.95;33.61
21828;BME280;11076;47.942;11.804;2023-06-26T06:58:31;94417.53;;;28.74;34.04
21828;BME280;11076;47.942;11.804;2023-06-26T07:03:36;94423.38;;;28.73;34.84
21828;BME280;11076;47.942;11.804;2023-06-26T07:08:38;94416.53;;;29.00;35.58
21828;BME280;11076;47.942;11.804;2023-06-26T07:13:40;94412.31;;;29.03;35.36
21828;BME280;11076;47.942;11.804;2023-06-26T07:18:43;94408.94;;;29.27;34.54
21828;BME280;11076;47.942;11.804;2023-06-26T07:23:45;94410.06;;;29.26;34.06
21828;BME280;11076;47.942;11.804;2023-06-26T07:28:48;94418.78;;;29.28;34.12
21828;BME280;11076;47.942;11.804;2023-06-26T07:33:51;94412.50;;;29.61;34.09
21828;BME280;11076;47.942;11.804;2023-06-26T07:38:54;94407.97;;;29.77;34.07
21828;BME280;11076;47.942;11.804;2023-06-26T07:43:57;94418.66;;;29.79;33.56
21828;BME280;11076;47.942;11.804;2023-06-26T07:49:00;94413.72;;;29.84;33.44
21828;BME280;11076;47.942;11.804;2023-06-26T07:54:03;94422.88;;;29.76;33.76
21828;BME280;11076;47.942;11.804;2023-06-26T07:59:05;94411.66;;;29.81;34.53
21828;BME280;11076;47.942;11.804;2023-06-26T08:04:07;94411.03;;;29.97;33.99
21828;BME280;11076;47.942;11.804;2023-06-26T08:09:12;94414.69;;;30.01;34.49
21828;BME280;11076;47.942;11.804;2023-06-26T08:14:15;94410.63;;;30.31;33.91
21828;BME280;11076;47.942;11.804;2023-06-26T08:19:18;94417.97;;;30.40;33.92
21828;BME280;11076;47.942;11.804;2023-06-26T08:24:20;94411.78;;;30.55;33.78
21828;BME280;11076;47.942;11.804;2023-06-26T08:29:23;94415.66;;;30.42;33.85
21828;BME280;11076;47.942;11.804;2023-06-26T08:34:25;94414.53;;;30.30;34.33
21828;BME280;11076;47.942;11.804;2023-06-26T08:39:27;94401.84;;;31.03;33.77
21828;BME280;11076;47.942;11.804;2023-06-26T08:44:30;94401.88;;;30.91;33.31
21828;BME280;11076;47.942;11.804;2023-06-26T08:50:10;94392.44;;;30.80;32.98
21828;BME280;11076;47.942;11.804;2023-06-26T08:55:15;94390.13;;;31.35;33.50
21828;BME280;11076;47.942;11.804;2023-06-26T09:00:19;94398.75;;;31.33;33.05
21828;BME280;11076;47.942;11.804;2023-06-26T09:05:22;94398.06;;;31.36;32.54
21828;BME280;11076;47.942;11.804;2023-06-26T09:10:24;94400.84;;;31.36;32.50
21828;BME280;11076;47.942;11.804;2023-06-26T09:15:27;94386.22;;;31.48;31.91
21828;BME280;11076;47.942;11.804;2023-06-26T09:20:32;94383.47;;;30.95;31.21
21828;BME280;11076;47.942;11.804;2023-06-26T09:25:39;94389.13;;;31.27;31.59
21828;BME280;11076;47.942;11.804;2023-06-26T09:30:44;94377.50;;;31.62;32.22
21828;BME280;11076;47.942;11.804;2023-06-26T09:35:48;94370.56;;;31.40;31.36
21828;BME280;11076;47.942;11.804;2023-06-26T09:40:54;94376.16;;;31.15;31.80
21828;BME280;11076;47.942;11.804;2023-06-26T09:45:56;94364.25;;;31.83;31.08
21828;BME280;11076;47.942;11.804;2023-06-26T09:51:00;94373.31;;;32.12;29.17
21828;BME280;11076;47.942;11.804;2023-06-26T09:56:15;94356.41;;;33.00;28.31
21828;BME280;11076;47.942;11.804;2023-06-26T10:01:19;94354.91;;;32.67;29.24
21828;BME280;11076;47.942;11.804;2023-06-26T10:06:26;94359.03;;;32.42;27.88
21828;BME280;11076;47.942;11.804;2023-06-26T10:11:37;94356.53;;;33.43;27.55
21828;BME280;11076;47.942;11.804;2023-06-26T10:16:43;94348.31;;;32.92;27.51
21828;BME280;11076;47.942;11.804;2023-06-26T10:21:46;94339.78;;;33.00;27.64
21828;BME280;11076;47.942;11.804;2023-06-26T10:27:00;94344.63;;;33.03;27.75
21828;BME280;11076;47.942;11.804;2023-06-26T10:32:04;94343.97;;;32.75;27.98
21828;BME280;11076;47.942;11.804;2023-06-26T10:37:07;94340.81;;;32.41;28.22
21828;BME280;11076;47.942;11.804;2023-06-26T10:47:29;94333.91;;;33.02;26.86
21828;BME280;11076;47.942;11.804;2023-06-26T10:52:38;94332.28;;;32.30;27.64
21828;BME280;11076;47.942;11.804;2023-06-26T10:57:45;94335.38;;;31.81;28.84
21828;BME280;11076;47.942;11.804;2023-06-26T11:02:49;94329.69;;;32.37;28.53
21828;BME280;11076;47.942;11.804;2023-06-26T11:08:05;94328.69;;;33.36;27.25
21828;BME280;11076;47.942;11.804;2023-06-26T11:13:10;94326.47;;;32.35;28.55
21828;BME280;11076;47.942;11.804;2023-06-26T11:18:13;94320.53;;;32.17;28.58
21828;BME280;11076;47.942;11.804;2023-06-26T11:23:22;94322.63;;;31.76;29.12
21828;BME280;11076;47.942;11.804;2023-06-26T11:28:26;94319.09;;;32.94;27.23
21828;BME280;11076;47.942;11.804;2023-06-26T11:33:29;94318.72;;;33.12;27.92
21828;BME280;11076;47.942;11.804;2023-06-26T11:38:37;94315.75;;;32.49;26.71
21828;BME280;11076;47.942;11.804;2023-06-26T11:43:40;94318.03;;;33.80;26.03
21828;BME280;11076;47.942;11.804;2023-06-26T11:48:42;94316.50;;;34.06;25.57
21828;BME280;11076;47.942;11.804;2023-06-26T11:53:46;94307.94;;;32.90;26.35
21828;BME280;11076;47.942;11.804;2023-06-26T11:59:03;94320.13;;;32.35;27.38
21828;BME280;11076;47.942;11.804;2023-06-26T12:04:08;94308.06;;;33.33;26.91
21828;BME280;11076;47.942;11.804;2023-06-26T12:09:11;94303.75;;;34.01;26.31
21828;BME280;11076;47.942;11.804;2023-06-26T12:14:14;94303.81;;;33.82;25.96
21828;BME280;11076;47.942;11.804;2023-06-26T12:19:17;94312.56;;;34.30;25.66
21828;BME280;11076;47.942;11.804;2023-06-26T12:24:20;94306.13;;;34.49;26.00
21828;BME280;11076;47.942;11.804;2023-06-26T12:29:33;94302.38;;;34.38;25.35
21828;BME280;11076;47.942;11.804;2023-06-26T12:34:37;94295.19;;;33.64;26.30
21828;BME280;11076;47.942;11.804;2023-06-26T12:39:50;94294.41;;;33.63;25.53
21828;BME280;11076;47.942;11.804;2023-06-26T12:44:53;94287.31;;;33.66;24.95
21828;BME280;11076;47.942;11.804;2023-06-26T12:49:58;94284.75;;;34.53;24.77
21828;BME280;11076;47.942;11.804;2023-06-26T12:55:00;94293.50;;;35.12;24.61
21828;BME280;11076;47.942;11.804;2023-06-26T13:00:03;94286.44;;;34.31;25.13
21828;BME280;11076;47.942;11.804;2023-06-26T13:05:07;94284.38;;;34.28;24.75
21828;BME280;11076;47.942;11.804;2023-06-26T13:10:10;94277.94;;;34.74;24.78
21828;BME280;11076;47.942;11.804;2023-06-26T13:15:12;94273.19;;;35.04;24.29
21828;BME280;11076;47.942;11.804;2023-06-26T13:20:14;94277.53;;;35.05;24.88
21828;BME280;11076;47.942;11.804;2023-06-26T13:25:17;94263.34;;;34.54;24.34
21828;BME280;11076;47.942;11.804;2023-06-26T13:30:19;94255.94;;;34.92;24.67
21828;BME280;11076;47.942;11.804;2023-06-26T13:35:22;94248.81;;;34.91;25.34
21828;BME280;11076;47.942;11.804;2023-06-26T13:40:24;94243.63;;;34.59;25.16
21828;BME280;11076;47.942;11.804;2023-06-26T13:45:26;94236.56;;;34.35;25.61
21828;BME280;11076;47.942;11.804;2023-06-26T13:50:32;94233.94;;;35.06;24.67
21828;BME280;11076;47.942;11.804;2023-06-26T13:55:45;94226.59;;;35.62;24.62
21828;BME280;11076;47.942;11.804;2023-06-26T14:00:48;94237.06;;;34.71;25.34
21828;BME280;11076;47.942;11.804;2023-06-26T14:05:52;94240.13;;;35.26;24.90
21828;BME280;11076;47.942;11.804;2023-06-26T14:10:54;94235.63;;;35.55;24.08
21828;BME280;11076;47.942;11.804;2023-06-26T14:15:56;94239.50;;;35.10;25.17
21828;BME280;11076;47.942;11.804;2023-06-26T14:20:59;94235.25;;;35.16;25.42
21828;BME280;11076;47.942;11.804;2023-06-26T14:26:02;94242.16;;;33.65;27.11
21828;BME280;11076;47.942;11.804;2023-06-26T14:31:05;94228.69;;;34.14;26.75
21828;BME280;11076;47.942;11.804;2023-06-26T14:36:07;94247.88;;;33.76;27.57
21828;BME280;11076;47.942;11.804;2023-06-26T14:41:11;94253.81;;;33.32;27.62
21828;BME280;11076;47.942;11.804;2023-06-26T14:46:13;94241.09;;;33.51;28.34
21828;BME280;11076;47.942;11.804;2023-06-26T14:51:15;94221.56;;;32.81;27.58
21828;BME280;11076;47.942;11.804;2023-06-26T14:56:18;94231.19;;;32.33;29.47
21828;BME280;11076;47.942;11.804;2023-06-26T15:01:20;94238.81;;;31.88;29.53
21828;BME280;11076;47.942;11.804;2023-06-26T15:06:23;94233.72;;;33.16;28.48
21828;BME280;11076;47.942;11.804;2023-06-26T15:11:25;94232.44;;;33.09;28.21
21828;BME280;11076;47.942;11.804;2023-06-26T15:16:28;94223.41;;;33.36;28.17
21828;BME280;11076;47.942;11.804;2023-06-26T15:21:30;94218.13;;;32.88;28.90
21828;BME280;11076;47.942;11.804;2023-06-26T15:26:32;94225.13;;;32.62;28.68
21828;BME280;11076;47.942;11.804;2023-06-26T15:31:35;94220.59;;;32.54;28.50
21828;BME280;11076;47.942;11.804;2023-06-26T15:36:39;94214.63;;;33.11;28.59
21828;BME280;11076;47.942;11.804;2023-06-26T15:41:41;94209.13;;;33.34;28.08
21828;BME280;11076;47.942;11.804;2023-06-26T15:46:44;94201.03;;;32.63;28.61
21828;BME280;11076;47.942;11.804;2023-06-26T15:51:46;94203.31;;;30.54;31.43
21828;BME280;11076;47.942;11.804;2023-06-26T15:56:49;94193.78;;;29.99;32.47
21828;BME280;11076;47.942;11.804;2023-06-26T16:01:52;94188.66;;;30.38;31.57
21828;BME280;11076;47.942;11.804;2023-06-26T16:06:56;94172.72;;;31.47;30.71
21828;BME280;11076;47.942;11.804;2023-06-26T16:11:59;94171.38;;;31.57;30.09
21828;BME280;11076;47.942;11.804;2023-06-26T16:17:01;94179.06;;;30.76;30.16
21828;BME280;11076;47.942;11.804;2023-06-26T16:22:04;94174.41;;;30.36;31.69
21828;BME280;11076;47.942;11.804;2023-06-26T16:27:07;94185.19;;;29.76;32.81
21828;BME280;11076;47.942;11.804;2023-06-26T16:32:09;94190.69;;;29.51;33.74
21828;BME280;11076;47.942;11.804;2023-06-26T16:37:12;94184.78;;;29.15;36.18
21828;BME280;11076;47.942;11.804;2023-06-26T16:42:14;94184.78;;;29.15;37.25
21828;BME280;11076;47.942;11.804;2023-06-26T16:47:17;94199.88;;;28.64;38.64
21828;BME280;11076;47.942;11.804;2023-06-26T16:52:20;94198.44;;;28.36;39.26
21828;BME280;11076;47.942;11.804;2023-06-26T16:57:23;94202.75;;;28.04;39.95
21828;BME280;11076;47.942;11.804;2023-06-26T17:02:25;94202.88;;;28.08;39.69
21828;BME280;11076;47.942;11.804;2023-06-26T17:07:29;94206.50;;;28.42;38.83
21828;BME280;11076;47.942;11.804;2023-06-26T17:12:31;94218.78;;;28.23;38.63
21828;BME280;11076;47.942;11.804;2023-06-26T17:17:34;94209.72;;;28.23;38.92
21828;BME280;11076;47.942;11.804;2023-06-26T17:22:36;94207.09;;;28.26;38.63
21828;BME280;11076;47.942;11.804;2023-06-26T17:27:39;94196.97;;;28.18;38.73
21828;BME280;11076;47.942;11.804;2023-06-26T17:32:42;94193.63;;;28.12;38.74
21828;BME280;11076;47.942;11.804;2023-06-26T17:37:45;94197.91;;;28.01;39.47
21828;BME280;11076;47.942;11.804;2023-06-26T17:42:47;94206.63;;;29.33;37.42
21828;BME280;11076;47.942;11.804;2023-06-26T17:47:49;94197.09;;;29.92;36.53
21828;BME280;11076;47.942;11.804;2023-06-26T17:52:52;94193.84;;;30.27;35.76
21828;BME280;11076;47.942;11.804;2023-06-26T17:57:54;94199.56;;;29.11;37.17
21828;BME280;11076;47.942;11.804;2023-06-26T18:02:57;94196.72;;;28.53;38.23
21828;BME280;11076;47.942;11.804;2023-06-26T18:07:59;94208.63;;;27.55;39.91
21828;BME280;11076;47.942;11.804;2023-06-26T18:13:05;94203.56;;;27.36;40.23
21828;BME280;11076;47.942;11.804;2023-06-26T18:18:07;94203.44;;;27.15;41.11
21828;BME280;11076;47.942;11.804;2023-06-26T18:23:10;94213.34;;;26.99;41.45
21828;BME280;11076;47.942;11.804;2023-06-26T18:28:12;94217.97;;;26.60;42.59
21828;BME280;11076;47.942;11.804;2023-06-26T18:33:16;94232.56;;;26.12;44.34
21828;BME280;11076;47.942;11.804;2023-06-26T18:38:18;94246.13;;;26.26;44.31
21828;BME280;11076;47.942;11.804;2023-06-26T18:43:21;94279.63;;;26.14;44.93
21828;BME280;11076;47.942;11.804;2023-06-26T18:48:23;94285.09;;;26.05;46.21
21828;BME280;11076;47.942;11.804;2023-06-26T18:53:25;94297.16;;;25.95;47.71
21828;BME280;11076;47.942;11.804;2023-06-26T18:58:28;94284.63;;;25.63;49.30
21828;BME280;11076;47.942;11.804;2023-06-26T19:03:30;94301.44;;;25.39;50.78
21828;BME280;11076;47.942;11.804;2023-06-26T19:08:32;94321.03;;;24.87;53.02
21828;BME280;11076;47.942;11.804;2023-06-26T19:13:35;94308.16;;;24.88;53.99
21828;BME280;11076;47.942;11.804;2023-06-26T19:18:37;94319.50;;;24.58;55.01
21828;BME280;11076;47.942;11.804;2023-06-26T19:23:40;94324.72;;;24.32;56.33
21828;BME280;11076;47.942;11.804;2023-06-26T19:28:42;94333.44;;;24.20;57.49
21828;BME280;11076;47.942;11.804;2023-06-26T19:40:21;94351.47;;;23.80;60.00
21828;BME280;11076;47.942;11.804;2023-06-26T19:45:23;94359.22;;;23.73;59.97
21828;BME280;11076;47.942;11.804;2023-06-26T19:50:26;94353.53;;;23.55;60.75
21828;BME280;11076;47.942;11.804;2023-06-26T19:55:28;94368.56;;;23.39;61.08
21828;BME280;11076;47.942;11.804;2023-06-26T20:00:31;94387.03;;;23.28;61.43
21828;BME280;11076;47.942;11.804;2023-06-26T20:05:33;94392.94;;;23.16;62.72
21828;BME280;11076;47.942;11.804;2023-06-26T20:10:35;94396.78;;;23.15;62.40
21828;BME280;11076;47.942;11.804;2023-06-26T20:15:38;94397.78;;;23.19;62.41
21828;BME280;11076;47.942;11.804;2023-06-26T20:20:40;94421.53;;;23.00;62.73
21828;BME280;11076;47.942;11.804;2023-06-26T20:25:43;94406.94;;;22.91;63.49
21828;BME280;11076;47.942;11.804;2023-06-26T20:30:45;94418.00;;;22.42;64.73
21828;BME280;11076;47.942;11.804;2023-06-26T20:35:49;94415.41;;;22.51;63.92
21828;BME280;11076;47.942;11.804;2023-06-26T20:40:51;94417.69;;;22.44;63.76
21828;BME280;11076;47.942;11.804;2023-06-26T20:45:54;94422.44;;;22.09;64.57
21828;BME280;11076;47.942;11.804;2023-06-26T20:50:56;94432.03;;;22.31;63.78
21828;BME280;11076;47.942;11.804;2023-06-26T20:56:00;94428.28;;;22.46;62.33
21828;BME280;11076;47.942;11.804;2023-06-26T21:01:03;94435.59;;;22.26;62.31
21828;BME280;11076;47.942;11.804;2023-06-26T21:06:06;94443.94;;;22.11;62.73
21828;BME280;11076;47.942;11.804;2023-06-26T21:11:08;94438.91;;;21.99;62.74
21828;BME280;11076;47.942;11.804;2023-06-26T21:16:10;94436.75;;;21.96;63.33
21828;BME280;11076;47.942;11.804;2023-06-26T21:21:13;94453.28;;;21.75;64.02
21828;BME280;11076;47.942;11.804;2023-06-26T21:26:15;94465.56;;;21.73;62.89
21828;BME280;11076;47.942;11.804;2023-06-26T21:31:18;94476.50;;;21.68;63.04
21828;BME280;11076;47.942;11.804;2023-06-26T21:36:20;94482.91;;;21.48;63.13
21828;BME280;11076;47.942;11.804;2023-06-26T21:41:22;94489.91;;;21.19;63.72
21828;BME280;11076;47.942;11.804;2023-06-26T21:46:25;94504.31;;;21.59;62.20
21828;BME280;11076;47.942;11.804;2023-06-26T21:51:27;94510.38;;;21.80;61.20
21828;BME280;11076;47.942;11.804;2023-06-26T21:56:30;94515.25;;;21.83;60.27
21828;BME280;11076;47.942;11.804;2023-06-26T22:01:32;94530.41;;;21.95;59.43
21828;BME280;11076;47.942;11.804;2023-06-26T22:06:35;94526.75;;;22.04;57.76
21828;BME280;11076;47.942;11.804;2023-06-26T22:11:37;94534.16;;;21.99;56.98
21828;BME280;11076;47.942;11.804;2023-06-26T22:16:40;94541.63;;;22.12;56.48
21828;BME280;11076;47.942;11.804;2023-06-26T22:21:42;94535.38;;;22.12;55.36
21828;BME280;11076;47.942;11.804;2023-06-26T22:26:44;94535.25;;;21.98;54.50
21828;BME280;11076;47.942;11.804;2023-06-26T22:31:47;94540.03;;;21.82;54.11
21828;BME280;11076;47.942;11.804;2023-06-26T22:36:49;94543.66;;;22.01;53.09
21828;BME280;11076;47.942;11.804;2023-06-26T22:41:51;94548.72;;;21.84;52.63
21828;BME280;11076;47.942;11.804;2023-06-26T22:46:54;94538.72;;;21.74;51.54
21828;BME280;11076;47.942;11.804;2023-06-26T22:51:56;94552.13;;;21.65;50.64
21828;BME280;11076;47.942;11.804;2023-06-26T22:56:59;94549.13;;;21.22;51.88
21828;BME280;11076;47.942;11.804;2023-06-26T23:02:01;94555.31;;;20.89;51.91
21828;BME280;11076;47.942;11.804;2023-06-26T23:07:04;94549.78;;;21.09;50.99
21828;BME280;11076;47.942;11.804;2023-06-26T23:12:07;94546.22;;;21.14;50.45
21828;BME280;11076;47.942;11.804;2023-06-26T23:17:10;94555.97;;;21.15;48.69
21828;BME280;11076;47.942;11.804;2023-06-26T23:22:13;94545.94;;;21.15;47.57
21828;BME280;11076;47.942;11.804;2023-06-26T23:27:16;94573.94;;;21.11;46.71
21828;BME280;11076;47.942;11.804;2023-06-26T23:32:18;94566.09;;;21.09;46.35
21828;BME280;11076;47.942;11.804;2023-06-26T23:37:22;94572.94;;;21.01;45.10
21828;BME280;11076;47.942;11.804;2023-06-26T23:42:28;94586.25;;;20.98;45.60
21828;BME280;11076;47.942;11.804;2023-06-26T23:47:30;94598.78;;;20.89;45.01
21828;BME280;11076;47.942;11.804;2023-06-26T23:52:33;94597.16;;;20.88;45.07
21828;BME280;11076;47.942;11.804;2023-06-26T23:57:36;94593.13;;;20.75;45.44
